sensor_id;sensor_type;location;lat;lon;timestamp;pressure;altitude;pressure_sealevel;temperature;humidity
26978;BME280;56314;48.088;11.642;2023-09-18T00:02:23;95082.09;;;17.63;91.99
26978;BME280;56314;48.088;11.642;2023-09-18T00:04:49;95078.81;;;17.61;92.32
26978;BME280;56314;48.088;11.642;2023-09-18T00:07:14;95069.03;;;17.53;92.00
26978;BME280;56314;48.088;11.642;2023-09-18T00:09:40;95076.00;;;17.46;92.48
26978;BME280;56314;48.088;11.642;2023-09-18T00:12:05;95076.00;;;17.46;92.78
26978;BME280;56314;48.088;11.642;2023-09-18T00:14:31;95067.06;;;17.38;91.95
26978;BME280;56314;48.088;11.642;2023-09-18T00:16:57;95059.28;;;17.37;91.81
26978;BME280;56314;48.088;11.642;2023-09-18T00:19:22;95062.44;;;17.41;90.94
26978;BME280;56314;48.088;11.642;2023-09-18T00:21:48;95062.75;;;17.37;90.87
26978;BME280;56314;48.088;11.642;2023-09-18T00:24:14;95062.94;;;17.36;90.95
26978;BME280;56314;48.088;11.642;2023-09-18T00:26:39;95064.25;;;17.40;90.29
26978;BME280;56314;48.088;11.642;2023-09-18T00:29:05;95058.63;;;17.35;90.50
26978;BME280;56314;48.088;11.642;2023-09-18T00:31:30;95057.31;;;17.31;90.88
26978;BME280;56314;48.088;11.642;2023-09-18T00:33:55;95050.19;;;17.31;90.57
26978;BME280;56314;48.088;11.642;2023-09-18T00:36:21;95042.22;;;17.31;90.20
26978;BME280;56314;48.088;11.642;2023-09-18T00:38:46;95035.59;;;17.27;89.73
26978;BME280;56314;48.088;11.642;2023-09-18T00:41:12;95026.47;;;17.21;89.51
26978;BME280;56314;48.088;11.642;2023-09-18T00:43:37;95027.66;;;17.19;89.71
26978;BME280;56314;48.088;11.642;2023-09-18T00:46:03;95024.50;;;17.23;89.35
26978;BME280;56314;48.088;11.642;2023-09-18T00:48:29;95021.69;;;17.17;89.57
26978;BME280;56314;48.088;11.642;2023-09-18T00:50:55;95016.53;;;17.15;89.92
26978;BME280;56314;48.088;11.642;2023-09-18T00:53:23;95014.22;;;17.12;89.81
26978;BME280;56314;48.088;11.642;2023-09-18T00:55:53;95016.88;;;17.12;89.63
26978;BME280;56314;48.088;11.642;2023-09-18T00:58:19;95020.53;;;17.11;89.82
26978;BME280;56314;48.088;11.642;2023-09-18T01:00:44;95018.88;;;17.10;90.03
26978;BME280;56314;48.088;11.642;2023-09-18T01:03:10;95016.88;;;17.12;90.28
26978;BME280;56314;48.088;11.642;2023-09-18T01:05:36;95010.25;;;17.08;89.89
26978;BME280;56314;48.088;11.642;2023-09-18T01:08:01;95017.72;;;17.04;89.92
26978;BME280;56314;48.088;11.642;2023-09-18T01:10:34;95004.28;;;17.06;89.64
26978;BME280;56314;48.088;11.642;2023-09-18T01:13:08;95005.78;;;17.00;89.32
26978;BME280;56314;48.088;11.642;2023-09-18T01:16:01;94992.03;;;16.97;89.33
26978;BME280;56314;48.088;11.642;2023-09-18T01:18:27;94987.19;;;16.92;88.78
26978;BME280;56314;48.088;11.642;2023-09-18T01:20:53;94991.66;;;16.91;88.54
26978;BME280;56314;48.088;11.642;2023-09-18T01:23:18;94996.47;;;16.88;88.80
26978;BME280;56314;48.088;11.642;2023-09-18T01:25:43;95003.13;;;16.84;88.67
26978;BME280;56314;48.088;11.642;2023-09-18T01:28:09;94998.47;;;16.86;89.06
26978;BME280;56314;48.088;11.642;2023-09-18T01:30:34;94994.50;;;16.82;88.79
26978;BME280;56314;48.088;11.642;2023-09-18T01:33:01;94996.50;;;16.80;87.99
26978;BME280;56314;48.088;11.642;2023-09-18T01:35:29;94988.34;;;16.81;87.61
26978;BME280;56314;48.088;11.642;2023-09-18T01:37:56;94997.16;;;16.82;88.40
26978;BME280;56314;48.088;11.642;2023-09-18T01:40:24;94992.53;;;16.84;86.34
26978;BME280;56314;48.088;11.642;2023-09-18T01:42:49;94994.00;;;16.86;86.11
26978;BME280;56314;48.088;11.642;2023-09-18T01:45:15;94993.16;;;16.86;85.34
26978;BME280;56314;48.088;11.642;2023-09-18T01:47:41;94988.38;;;16.89;85.73
26978;BME280;56314;48.088;11.642;2023-09-18T01:50:06;94979.75;;;16.87;85.11
26978;BME280;56314;48.088;11.642;2023-09-18T01:52:32;94980.41;;;16.89;83.74
26978;BME280;56314;48.088;11.642;2023-09-18T01:54:57;94970.13;;;16.86;82.91
26978;BME280;56314;48.088;11.642;2023-09-18T01:57:23;94970.81;;;16.88;82.52
26978;BME280;56314;48.088;11.642;2023-09-18T01:59:48;94972.94;;;16.85;82.73
26978;BME280;56314;48.088;11.642;2023-09-18T02:02:13;94966.00;;;16.84;82.67
26978;BME280;56314;48.088;11.642;2023-09-18T02:04:39;94959.69;;;16.85;82.39
26978;BME280;56314;48.088;11.642;2023-09-18T02:07:05;94944.09;;;16.90;82.24
26978;BME280;56314;48.088;11.642;2023-09-18T02:09:31;94953.41;;;16.94;80.94
26978;BME280;56314;48.088;11.642;2023-09-18T02:11:56;94954.72;;;16.98;80.68
26978;BME280;56314;48.088;11.642;2023-09-18T02:14:22;94947.28;;;17.02;80.59
26978;BME280;56314;48.088;11.642;2023-09-18T02:16:47;94948.28;;;17.01;80.01
26978;BME280;56314;48.088;11.642;2023-09-18T02:19:14;94950.06;;;17.08;79.31
26978;BME280;56314;48.088;11.642;2023-09-18T02:21:40;94947.25;;;17.10;79.58
26978;BME280;56314;48.088;11.642;2023-09-18T02:24:06;94946.72;;;17.15;80.34
26978;BME280;56314;48.088;11.642;2023-09-18T02:26:32;94949.88;;;17.18;78.33
26978;BME280;56314;48.088;11.642;2023-09-18T02:28:59;94942.38;;;17.22;78.08
26978;BME280;56314;48.088;11.642;2023-09-18T02:31:25;94943.91;;;17.25;77.94
26978;BME280;56314;48.088;11.642;2023-09-18T02:33:51;94934.44;;;17.30;77.18
26978;BME280;56314;48.088;11.642;2023-09-18T02:36:16;94933.25;;;17.33;76.87
26978;BME280;56314;48.088;11.642;2023-09-18T02:38:42;94937.38;;;17.35;76.44
26978;BME280;56314;48.088;11.642;2023-09-18T02:41:08;94937.56;;;17.34;76.95
26978;BME280;56314;48.088;11.642;2023-09-18T02:43:33;94938.88;;;17.30;77.07
26978;BME280;56314;48.088;11.642;2023-09-18T02:45:58;94932.28;;;17.26;76.90
26978;BME280;56314;48.088;11.642;2023-09-18T02:48:24;94923.81;;;17.30;75.79
26978;BME280;56314;48.088;11.642;2023-09-18T02:50:49;94929.94;;;17.31;75.43
26978;BME280;56314;48.088;11.642;2023-09-18T02:53:22;94922.28;;;17.36;75.30
26978;BME280;56314;48.088;11.642;2023-09-18T02:55:50;94917.63;;;17.38;74.94
26978;BME280;56314;48.088;11.642;2023-09-18T02:58:16;94907.38;;;17.35;74.80
26978;BME280;56314;48.088;11.642;2023-09-18T03:00:45;94901.88;;;17.36;74.55
26978;BME280;56314;48.088;11.642;2023-09-18T03:03:12;94895.22;;;17.41;73.99
26978;BME280;56314;48.088;11.642;2023-09-18T03:05:40;94895.38;;;17.47;73.08
26978;BME280;56314;48.088;11.642;2023-09-18T03:08:05;94897.63;;;17.59;72.88
26978;BME280;56314;48.088;11.642;2023-09-18T03:10:35;94886.53;;;17.55;72.82
26978;BME280;56314;48.088;11.642;2023-09-18T03:13:01;94900.97;;;17.52;73.09
26978;BME280;56314;48.088;11.642;2023-09-18T03:15:27;94896.03;;;17.49;73.53
26978;BME280;56314;48.088;11.642;2023-09-18T03:17:52;94897.88;;;17.41;74.22
26978;BME280;56314;48.088;11.642;2023-09-18T03:20:17;94894.44;;;17.32;74.50
26978;BME280;56314;48.088;11.642;2023-09-18T03:22:43;94892.97;;;17.29;74.56
26978;BME280;56314;48.088;11.642;2023-09-18T03:25:08;94885.81;;;17.30;73.63
26978;BME280;56314;48.088;11.642;2023-09-18T03:27:35;94885.66;;;17.31;74.45
26978;BME280;56314;48.088;11.642;2023-09-18T03:30:00;94875.69;;;17.33;73.83
26978;BME280;56314;48.088;11.642;2023-09-18T03:32:26;94877.03;;;17.29;73.67
26978;BME280;56314;48.088;11.642;2023-09-18T03:34:51;94875.84;;;17.32;74.15
26978;BME280;56314;48.088;11.642;2023-09-18T03:37:17;94870.06;;;17.28;73.67
26978;BME280;56314;48.088;11.642;2023-09-18T03:39:43;94869.56;;;17.33;73.16
26978;BME280;56314;48.088;11.642;2023-09-18T03:42:09;94863.78;;;17.29;73.42
26978;BME280;56314;48.088;11.642;2023-09-18T03:44:34;94865.25;;;17.32;73.48
26978;BME280;56314;48.088;11.642;2023-09-18T03:46:59;94870.06;;;17.28;73.65
26978;BME280;56314;48.088;11.642;2023-09-18T03:49:25;94867.09;;;17.23;74.01
26978;BME280;56314;48.088;11.642;2023-09-18T03:51:51;94849.25;;;17.17;74.40
26978;BME280;56314;48.088;11.642;2023-09-18T03:54:16;94844.59;;;17.19;74.17
26978;BME280;56314;48.088;11.642;2023-09-18T03:56:42;94838.97;;;17.14;73.92
26978;BME280;56314;48.088;11.642;2023-09-18T03:59:07;94842.63;;;17.13;73.52
26978;BME280;56314;48.088;11.642;2023-09-18T04:01:32;94837.66;;;17.10;73.67
26978;BME280;56314;48.088;11.642;2023-09-18T04:03:58;94827.94;;;17.02;74.04
26978;BME280;56314;48.088;11.642;2023-09-18T04:06:23;94835.56;;;16.97;74.01
26978;BME280;56314;48.088;11.642;2023-09-18T04:08:51;94833.56;;;16.99;74.17
26978;BME280;56314;48.088;11.642;2023-09-18T04:11:17;94838.41;;;16.95;74.73
26978;BME280;56314;48.088;11.642;2023-09-18T04:13:44;94841.34;;;16.92;74.60
26978;BME280;56314;48.088;11.642;2023-09-18T04:16:10;94836.38;;;16.89;74.98
26978;BME280;56314;48.088;11.642;2023-09-18T04:18:38;94840.88;;;16.88;74.54
26978;BME280;56314;48.088;11.642;2023-09-18T04:21:04;94826.09;;;16.86;74.49
26978;BME280;56314;48.088;11.642;2023-09-18T04:23:29;94824.97;;;16.88;74.19
26978;BME280;56314;48.088;11.642;2023-09-18T04:25:55;94832.91;;;16.88;74.28
26978;BME280;56314;48.088;11.642;2023-09-18T04:28:21;94825.47;;;16.84;74.54
26978;BME280;56314;48.088;11.642;2023-09-18T04:30:47;94824.81;;;16.82;74.55
26978;BME280;56314;48.088;11.642;2023-09-18T04:33:14;94820.03;;;16.77;74.78
26978;BME280;56314;48.088;11.642;2023-09-18T04:35:39;94817.56;;;16.67;74.82
26978;BME280;56314;48.088;11.642;2023-09-18T04:38:07;94812.94;;;16.69;74.85
26978;BME280;56314;48.088;11.642;2023-09-18T04:40:36;94813.25;;;16.66;75.16
26978;BME280;56314;48.088;11.642;2023-09-18T04:43:01;94814.59;;;16.62;75.33
26978;BME280;56314;48.088;11.642;2023-09-18T04:45:30;94820.25;;;16.59;75.63
26978;BME280;56314;48.088;11.642;2023-09-18T04:47:55;94822.38;;;16.64;75.04
26978;BME280;56314;48.088;11.642;2023-09-18T04:50:21;94818.41;;;16.59;75.54
26978;BME280;56314;48.088;11.642;2023-09-18T04:52:47;94825.69;;;16.57;75.62
26978;BME280;56314;48.088;11.642;2023-09-18T04:55:13;94824.53;;;16.60;75.15
26978;BME280;56314;48.088;11.642;2023-09-18T04:57:38;94822.06;;;16.58;75.70
26978;BME280;56314;48.088;11.642;2023-09-18T05:00:04;94811.28;;;16.60;75.73
26978;BME280;56314;48.088;11.642;2023-09-18T05:02:34;94818.09;;;16.62;75.11
26978;BME280;56314;48.088;11.642;2023-09-18T05:05:00;94814.94;;;16.59;75.04
26978;BME280;56314;48.088;11.642;2023-09-18T05:07:26;94817.09;;;16.64;74.84
26978;BME280;56314;48.088;11.642;2023-09-18T05:09:52;94807.78;;;16.68;75.39
26978;BME280;56314;48.088;11.642;2023-09-18T05:12:17;94821.69;;;16.70;74.91
26978;BME280;56314;48.088;11.642;2023-09-18T05:14:43;94826.81;;;16.80;74.63
26978;BME280;56314;48.088;11.642;2023-09-18T05:17:10;94824.97;;;16.80;74.35
26978;BME280;56314;48.088;11.642;2023-09-18T05:19:37;94834.56;;;16.81;74.58
26978;BME280;56314;48.088;11.642;2023-09-18T05:22:02;94829.75;;;16.85;74.27
26978;BME280;56314;48.088;11.642;2023-09-18T05:24:28;94825.44;;;16.92;73.59
26978;BME280;56314;48.088;11.642;2023-09-18T05:26:54;94819.28;;;16.91;74.25
26978;BME280;56314;48.088;11.642;2023-09-18T05:29:19;94821.97;;;17.00;73.25
26978;BME280;56314;48.088;11.642;2023-09-18T05:31:45;94826.75;;;17.04;72.74
26978;BME280;56314;48.088;11.642;2023-09-18T05:34:11;94824.91;;;17.05;72.92
26978;BME280;56314;48.088;11.642;2023-09-18T05:36:37;94830.53;;;17.10;72.58
26978;BME280;56314;48.088;11.642;2023-09-18T05:39:02;94837.97;;;17.15;72.82
26978;BME280;56314;48.088;11.642;2023-09-18T05:41:28;94837.09;;;17.22;75.83
26978;BME280;56314;48.088;11.642;2023-09-18T05:43:55;94843.03;;;17.33;77.58
26978;BME280;56314;48.088;11.642;2023-09-18T05:46:20;94832.69;;;17.38;76.09
26978;BME280;56314;48.088;11.642;2023-09-18T05:48:46;94829.00;;;17.47;74.36
26978;BME280;56314;48.088;11.642;2023-09-18T05:51:11;94827.41;;;17.61;75.05
26978;BME280;56314;48.088;11.642;2023-09-18T05:53:36;94820.94;;;17.64;75.58
26978;BME280;56314;48.088;11.642;2023-09-18T05:56:03;94821.34;;;17.76;75.90
26978;BME280;56314;48.088;11.642;2023-09-18T05:58:31;94819.47;;;17.84;76.02
26978;BME280;56314;48.088;11.642;2023-09-18T06:01:00;94818.72;;;17.99;77.00
26978;BME280;56314;48.088;11.642;2023-09-18T06:03:29;94816.66;;;18.09;77.30
26978;BME280;56314;48.088;11.642;2023-09-18T06:06:01;94803.19;;;18.26;74.74
26978;BME280;56314;48.088;11.642;2023-09-18T06:08:26;94803.88;;;18.43;70.63
26978;BME280;56314;48.088;11.642;2023-09-18T06:10:52;94804.41;;;18.53;68.73
26978;BME280;56314;48.088;11.642;2023-09-18T06:13:17;94813.78;;;18.64;68.84
26978;BME280;56314;48.088;11.642;2023-09-18T06:15:43;94813.53;;;18.74;70.37
26978;BME280;56314;48.088;11.642;2023-09-18T06:18:08;94815.28;;;18.82;70.36
26978;BME280;56314;48.088;11.642;2023-09-18T06:20:33;94812.97;;;18.94;69.13
26978;BME280;56314;48.088;11.642;2023-09-18T06:22:59;94812.72;;;19.03;70.19
26978;BME280;56314;48.088;11.642;2023-09-18T06:25:24;94811.16;;;19.09;69.02
26978;BME280;56314;48.088;11.642;2023-09-18T06:27:49;94806.72;;;19.16;70.46
26978;BME280;56314;48.088;11.642;2023-09-18T06:30:15;94803.31;;;19.22;69.69
26978;BME280;56314;48.088;11.642;2023-09-18T06:32:40;94807.88;;;19.29;68.38
26978;BME280;56314;48.088;11.642;2023-09-18T06:35:06;94809.16;;;19.33;69.25
26978;BME280;56314;48.088;11.642;2023-09-18T06:37:31;94807.75;;;19.37;72.79
26978;BME280;56314;48.088;11.642;2023-09-18T06:39:57;94808.41;;;19.39;72.19
26978;BME280;56314;48.088;11.642;2023-09-18T06:42:22;94813.25;;;19.50;73.54
26978;BME280;56314;48.088;11.642;2023-09-18T06:44:48;94812.66;;;19.55;71.91
26978;BME280;56314;48.088;11.642;2023-09-18T06:47:13;94824.16;;;19.56;72.14
26978;BME280;56314;48.088;11.642;2023-09-18T06:49:40;94827.75;;;19.48;71.22
26978;BME280;56314;48.088;11.642;2023-09-18T06:52:07;94823.44;;;19.47;73.14
26978;BME280;56314;48.088;11.642;2023-09-18T06:54:32;94830.63;;;19.46;72.99
26978;BME280;56314;48.088;11.642;2023-09-18T06:56:58;94825.22;;;19.40;73.57
26978;BME280;56314;48.088;11.642;2023-09-18T06:59:23;94838.09;;;19.36;73.98
26978;BME280;56314;48.088;11.642;2023-09-18T07:01:49;94844.66;;;19.40;74.34
26978;BME280;56314;48.088;11.642;2023-09-18T07:04:14;94859.72;;;19.48;74.65
26978;BME280;56314;48.088;11.642;2023-09-18T07:06:39;94869.69;;;19.61;72.43
26978;BME280;56314;48.088;11.642;2023-09-18T07:09:05;94876.44;;;19.78;69.68
26978;BME280;56314;48.088;11.642;2023-09-18T07:11:33;94887.13;;;20.00;68.76
26978;BME280;56314;48.088;11.642;2023-09-18T07:13:58;94892.03;;;20.18;67.72
26978;BME280;56314;48.088;11.642;2023-09-18T07:16:24;94889.13;;;20.35;67.99
26978;BME280;56314;48.088;11.642;2023-09-18T07:18:50;94887.69;;;20.60;67.58
26978;BME280;56314;48.088;11.642;2023-09-18T07:21:15;94884.09;;;20.75;68.32
26978;BME280;56314;48.088;11.642;2023-09-18T07:23:40;94888.34;;;20.91;66.70
26978;BME280;56314;48.088;11.642;2023-09-18T07:26:06;94881.81;;;21.00;65.95
26978;BME280;56314;48.088;11.642;2023-09-18T07:28:31;94880.03;;;21.14;66.69
26978;BME280;56314;48.088;11.642;2023-09-18T07:30:57;94892.88;;;21.32;67.13
26978;BME280;56314;48.088;11.642;2023-09-18T07:33:28;94885.19;;;21.58;66.42
26978;BME280;56314;48.088;11.642;2023-09-18T07:35:53;94888.38;;;21.75;66.52
26978;BME280;56314;48.088;11.642;2023-09-18T07:38:18;94890.03;;;21.96;66.30
26978;BME280;56314;48.088;11.642;2023-09-18T07:40:47;94887.22;;;22.04;63.31
26978;BME280;56314;48.088;11.642;2023-09-18T07:43:12;94892.97;;;22.14;62.71
26978;BME280;56314;48.088;11.642;2023-09-18T07:45:38;94887.25;;;22.24;62.06
26978;BME280;56314;48.088;11.642;2023-09-18T07:48:04;94880.84;;;22.32;61.02
26978;BME280;56314;48.088;11.642;2023-09-18T07:50:31;94879.69;;;22.55;60.81
26978;BME280;56314;48.088;11.642;2023-09-18T07:52:58;94878.22;;;22.72;60.22
26978;BME280;56314;48.088;11.642;2023-09-18T07:55:24;94878.00;;;22.87;60.25
26978;BME280;56314;48.088;11.642;2023-09-18T07:57:49;94893.41;;;23.12;60.61
26978;BME280;56314;48.088;11.642;2023-09-18T08:00:16;94894.00;;;23.28;60.32
26978;BME280;56314;48.088;11.642;2023-09-18T08:02:42;94907.16;;;23.43;59.52
26978;BME280;56314;48.088;11.642;2023-09-18T08:05:08;94908.53;;;23.59;58.94
26978;BME280;56314;48.088;11.642;2023-09-18T08:07:34;94911.41;;;23.64;59.76
26978;BME280;56314;48.088;11.642;2023-09-18T08:10:02;94918.00;;;23.68;59.37
26978;BME280;56314;48.088;11.642;2023-09-18T08:12:29;94920.84;;;23.80;58.79
26978;BME280;56314;48.088;11.642;2023-09-18T08:14:54;94924.25;;;23.94;58.93
26978;BME280;56314;48.088;11.642;2023-09-18T08:17:22;94927.16;;;23.92;59.12
26978;BME280;56314;48.088;11.642;2023-09-18T08:19:50;94926.03;;;23.75;58.43
26978;BME280;56314;48.088;11.642;2023-09-18T08:22:17;94921.38;;;23.50;58.21
26978;BME280;56314;48.088;11.642;2023-09-18T08:24:45;94930.09;;;23.25;59.27
26978;BME280;56314;48.088;11.642;2023-09-18T08:27:11;94924.09;;;23.16;61.61
26978;BME280;56314;48.088;11.642;2023-09-18T08:29:37;94934.59;;;23.11;61.81
26978;BME280;56314;48.088;11.642;2023-09-18T08:32:02;94942.22;;;23.14;63.26
26978;BME280;56314;48.088;11.642;2023-09-18T08:34:28;94942.44;;;23.13;63.74
26978;BME280;56314;48.088;11.642;2023-09-18T08:36:53;94935.03;;;23.01;63.21
26978;BME280;56314;48.088;11.642;2023-09-18T08:39:19;94951.09;;;22.95;63.44
26978;BME280;56314;48.088;11.642;2023-09-18T08:41:49;94949.44;;;22.94;65.45
26978;BME280;56314;48.088;11.642;2023-09-18T08:44:17;94959.31;;;22.93;64.18
26978;BME280;56314;48.088;11.642;2023-09-18T08:46:43;94960.56;;;22.97;63.84
26978;BME280;56314;48.088;11.642;2023-09-18T08:49:10;94966.13;;;22.96;62.84
26978;BME280;56314;48.088;11.642;2023-09-18T08:51:36;94973.34;;;22.95;63.33
26978;BME280;56314;48.088;11.642;2023-09-18T08:54:04;94971.28;;;22.97;64.02
26978;BME280;56314;48.088;11.642;2023-09-18T08:56:31;94977.03;;;22.87;63.15
26978;BME280;56314;48.088;11.642;2023-09-18T08:58:57;94975.81;;;22.83;64.11
26978;BME280;56314;48.088;11.642;2023-09-18T09:01:25;94978.06;;;22.86;64.49
26978;BME280;56314;48.088;11.642;2023-09-18T09:03:50;94978.06;;;22.86;64.92
26978;BME280;56314;48.088;11.642;2023-09-18T09:06:16;94999.28;;;22.81;64.28
26978;BME280;56314;48.088;11.642;2023-09-18T09:08:42;95008.72;;;22.64;62.82
26978;BME280;56314;48.088;11.642;2023-09-18T09:11:07;95024.53;;;22.45;63.50
26978;BME280;56314;48.088;11.642;2023-09-18T09:13:32;95025.91;;;22.34;64.06
26978;BME280;56314;48.088;11.642;2023-09-18T09:15:58;95015.78;;;22.23;62.05
26978;BME280;56314;48.088;11.642;2023-09-18T09:18:26;95009.78;;;22.14;63.84
26978;BME280;56314;48.088;11.642;2023-09-18T09:21:00;95004.03;;;22.17;64.19
26978;BME280;56314;48.088;11.642;2023-09-18T09:23:44;95003.69;;;22.27;64.58
26978;BME280;56314;48.088;11.642;2023-09-18T09:26:15;95002.94;;;22.53;64.03
26978;BME280;56314;48.088;11.642;2023-09-18T09:28:41;95003.38;;;22.77;63.18
26978;BME280;56314;48.088;11.642;2023-09-18T09:31:08;95004.66;;;23.21;62.35
26978;BME280;56314;48.088;11.642;2023-09-18T09:33:36;94995.13;;;23.66;60.90
26978;BME280;56314;48.088;11.642;2023-09-18T09:36:04;95000.00;;;24.41;58.81
26978;BME280;56314;48.088;11.642;2023-09-18T09:38:32;94980.09;;;25.13;57.61
26978;BME280;56314;48.088;11.642;2023-09-18T09:41:02;94984.19;;;25.85;54.96
26978;BME280;56314;48.088;11.642;2023-09-18T09:43:32;94978.66;;;26.48;51.20
26978;BME280;56314;48.088;11.642;2023-09-18T09:45:59;94988.94;;;26.02;51.47
26978;BME280;56314;48.088;11.642;2023-09-18T09:48:25;95002.44;;;25.58;52.45
26978;BME280;56314;48.088;11.642;2023-09-18T09:50:51;94995.13;;;25.21;53.70
26978;BME280;56314;48.088;11.642;2023-09-18T09:53:17;94994.34;;;24.88;55.83
26978;BME280;56314;48.088;11.642;2023-09-18T09:55:43;95005.31;;;24.87;55.62
26978;BME280;56314;48.088;11.642;2023-09-18T09:58:10;95004.16;;;24.76;56.08
26978;BME280;56314;48.088;11.642;2023-09-18T10:00:43;95019.72;;;24.54;56.13
26978;BME280;56314;48.088;11.642;2023-09-18T10:03:13;95017.38;;;24.32;56.79
26978;BME280;56314;48.088;11.642;2023-09-18T10:05:42;95019.06;;;24.20;57.98
26978;BME280;56314;48.088;11.642;2023-09-18T10:08:12;95017.41;;;24.25;57.79
26978;BME280;56314;48.088;11.642;2023-09-18T10:10:40;95007.13;;;24.61;57.12
26978;BME280;56314;48.088;11.642;2023-09-18T10:13:19;95005.50;;;24.53;57.11
26978;BME280;56314;48.088;11.642;2023-09-18T10:15:48;95001.63;;;24.42;57.51
26978;BME280;56314;48.088;11.642;2023-09-18T10:18:31;95002.53;;;24.29;56.89
26978;BME280;56314;48.088;11.642;2023-09-18T10:26:35;95003.34;;;23.64;60.03
26978;BME280;56314;48.088;11.642;2023-09-18T10:29:04;95012.66;;;23.55;60.58
26978;BME280;56314;48.088;11.642;2023-09-18T10:31:34;95004.81;;;23.60;61.14
26978;BME280;56314;48.088;11.642;2023-09-18T10:34:03;95014.09;;;23.58;60.58
26978;BME280;56314;48.088;11.642;2023-09-18T10:36:31;95029.34;;;23.50;60.54
26978;BME280;56314;48.088;11.642;2023-09-18T10:38:58;95038.66;;;23.48;61.55
26978;BME280;56314;48.088;11.642;2023-09-18T10:41:26;95041.50;;;23.53;60.88
26978;BME280;56314;48.088;11.642;2023-09-18T10:43:56;95039.28;;;23.50;59.68
26978;BME280;56314;48.088;11.642;2023-09-18T10:46:23;95038.84;;;23.40;60.24
26978;BME280;56314;48.088;11.642;2023-09-18T10:48:50;95038.84;;;23.46;60.64
26978;BME280;56314;48.088;11.642;2023-09-18T10:51:20;95036.59;;;23.50;60.61
26978;BME280;56314;48.088;11.642;2023-09-18T10:53:47;95043.78;;;23.49;61.20
26978;BME280;56314;48.088;11.642;2023-09-18T10:56:16;95038.66;;;23.48;61.64
26978;BME280;56314;48.088;11.642;2023-09-18T10:58:43;95041.94;;;23.43;60.58
26978;BME280;56314;48.088;11.642;2023-09-18T11:01:11;95043.16;;;23.47;60.54
26978;BME280;56314;48.088;11.642;2023-09-18T11:03:38;95044.81;;;23.42;61.06
26978;BME280;56314;48.088;11.642;2023-09-18T11:06:06;95033.28;;;23.41;59.46
26978;BME280;56314;48.088;11.642;2023-09-18T11:08:43;95037.22;;;23.39;59.59
26978;BME280;56314;48.088;11.642;2023-09-18T11:11:11;95047.72;;;23.40;59.92
26978;BME280;56314;48.088;11.642;2023-09-18T11:13:40;95051.19;;;23.47;60.40
26978;BME280;56314;48.088;11.642;2023-09-18T11:16:19;95050.56;;;23.59;61.24
26978;BME280;56314;48.088;11.642;2023-09-18T11:21:26;95035.72;;;23.63;60.55
26978;BME280;56314;48.088;11.642;2023-09-18T11:24:17;95045.41;;;23.64;60.44
26978;BME280;56314;48.088;11.642;2023-09-18T11:26:45;95056.75;;;23.66;59.47
26978;BME280;56314;48.088;11.642;2023-09-18T11:29:13;95059.63;;;23.58;59.73
26978;BME280;56314;48.088;11.642;2023-09-18T11:31:52;95057.19;;;23.36;59.64
26978;BME280;56314;48.088;11.642;2023-09-18T11:34:29;95062.31;;;23.17;59.95
26978;BME280;56314;48.088;11.642;2023-09-18T11:37:00;95078.59;;;22.96;59.04
26978;BME280;56314;48.088;11.642;2023-09-18T11:39:40;95081.41;;;22.81;59.98
26978;BME280;56314;48.088;11.642;2023-09-18T11:42:15;95095.63;;;22.74;61.94
26978;BME280;56314;48.088;11.642;2023-09-18T11:44:42;95099.09;;;22.75;62.35
26978;BME280;56314;48.088;11.642;2023-09-18T11:47:13;95111.25;;;22.71;60.63
26978;BME280;56314;48.088;11.642;2023-09-18T11:49:46;95104.88;;;22.65;60.96
26978;BME280;56314;48.088;11.642;2023-09-18T11:52:17;95108.53;;;22.57;61.34
26978;BME280;56314;48.088;11.642;2023-09-18T11:54:43;95114.84;;;22.43;60.74
26978;BME280;56314;48.088;11.642;2023-09-18T11:57:08;95119.09;;;22.30;62.06
26978;BME280;56314;48.088;11.642;2023-09-18T11:59:37;95133.19;;;22.11;63.72
26978;BME280;56314;48.088;11.642;2023-09-18T12:02:03;95139.06;;;21.93;64.22
26978;BME280;56314;48.088;11.642;2023-09-18T12:04:31;95151.88;;;21.76;65.49
26978;BME280;56314;48.088;11.642;2023-09-18T12:06:58;95157.94;;;21.63;65.97
26978;BME280;56314;48.088;11.642;2023-09-18T12:09:26;95159.09;;;21.32;65.55
26978;BME280;56314;48.088;11.642;2023-09-18T12:11:52;95159.63;;;21.20;66.14
26978;BME280;56314;48.088;11.642;2023-09-18T12:14:20;95150.31;;;21.16;66.80
26978;BME280;56314;48.088;11.642;2023-09-18T12:16:45;95159.09;;;21.10;67.56
26978;BME280;56314;48.088;11.642;2023-09-18T12:19:16;95173.16;;;20.82;68.80
26978;BME280;56314;48.088;11.642;2023-09-18T12:21:46;95176.50;;;20.54;69.51
26978;BME280;56314;48.088;11.642;2023-09-18T12:24:20;95181.19;;;20.37;70.27
26978;BME280;56314;48.088;11.642;2023-09-18T12:26:45;95196.38;;;20.22;71.24
26978;BME280;56314;48.088;11.642;2023-09-18T12:29:11;95197.38;;;20.06;71.76
26978;BME280;56314;48.088;11.642;2023-09-18T12:31:37;95199.38;;;19.89;73.88
26978;BME280;56314;48.088;11.642;2023-09-18T12:34:03;95204.91;;;19.87;75.90
26978;BME280;56314;48.088;11.642;2023-09-18T12:36:29;95209.91;;;19.82;75.98
26978;BME280;56314;48.088;11.642;2023-09-18T12:38:56;95207.78;;;19.77;77.06
26978;BME280;56314;48.088;11.642;2023-09-18T12:41:24;95209.69;;;19.68;77.68
26978;BME280;56314;48.088;11.642;2023-09-18T12:43:50;95221.34;;;19.67;77.89
26978;BME280;56314;48.088;11.642;2023-09-18T12:46:15;95224.25;;;19.58;77.47
26978;BME280;56314;48.088;11.642;2023-09-18T12:48:43;95225.16;;;19.50;78.08
26978;BME280;56314;48.088;11.642;2023-09-18T12:51:13;95228.94;;;19.32;78.49
26978;BME280;56314;48.088;11.642;2023-09-18T12:53:39;95230.66;;;19.25;79.04
26978;BME280;56314;48.088;11.642;2023-09-18T12:56:09;95224.41;;;19.10;79.47
26978;BME280;56314;48.088;11.642;2023-09-18T12:58:35;95233.28;;;19.02;80.20